KHDN/HDN METAR and TAF weather

Enter ICAO airport designator
Station Type Date Time Source
KHDN METAR 2020/07/13 13:56 UTC NOAA

KHDN 131356Z AUTO 14005KT 10SM CLR 18/08 A3016 RMK AO2 SLP132 T01780083


Station Type Date Time Source
KHDN Decoded METAR 2020/07/13 13:56 UTC NOAA

Hayden, Yampa Valley Airport, CO, United States (KHDN) 40-29N 107-13W
Jul 13, 2020 - 09:56 AM EDT / 2020.07.13 1356 UTC
Wind: from the SE (140 degrees) at 6 MPH (5 KT):0
Visibility: 10 mile(s):0
Sky conditions: clear
Temperature: 64.0 F (17.8 C)
Dew Point: 46.9 F (8.3 C)
Relative Humidity: 53%
Pressure (altimeter): 30.16 in. Hg (1021 hPa)
ob: KHDN 131356Z AUTO 14005KT 10SM CLR 18/08 A3016 RMK AO2 SLP132 T01780083
cycle: 14

Station Type Date Time Source
KHDN TAF 2020/07/13 12:40 UTC NOAA

TAF KHDN 131138Z 1312/1412 10008KT P6SM VCTS FEW080CB BKN150
FM131800 26012G18KT P6SM VCTS SCT100CB
FM132000 26016G25KT P6SM VCTS FEW080CB BKN100
FM140200 18012KT P6SM FEW100 SCT250
FM140700 15006KT P6SM SCT250

Example: see airport list